Time;durP1;ratioP1;P1;durP2;ratioP2;P2;SDS_P1;SDS_P2;PMS_P1;PMS_P2;Temp;Humidity;BMP_temperature;BMP_pressure;BME280_temperature;BME280_humidity;BME280_pressure;Samples;Min_cycle;Max_cycle;Signal;HPM_P1;HPM_P2
2023/04/05 00:03:03;;;;;;;2.35;1.65;;;14.60;57.20;;;;;;10329633;28;20054;-55
2023/04/05 00:08:07;;;;;;;3.20;1.55;;;14.60;57.20;;;;;;10322809;28;20137;-55
2023/04/05 00:13:07;;;;;;;3.13;1.58;;;14.50;57.00;;;;;;10332300;28;20049;-55
2023/04/05 00:18:20;;;;;;;3.60;2.13;;;14.50;56.90;;;;;;10324199;28;20026;-54
2023/04/05 00:23:21;;;;;;;2.17;1.35;;;14.50;57.00;;;;;;10322520;28;20037;-54
2023/04/05 00:28:22;;;;;;;3.47;2.05;;;14.50;57.30;;;;;;10322883;28;20118;-54
2023/04/05 00:33:22;;;;;;;2.45;1.55;;;14.40;57.10;;;;;;10322021;28;20079;-55
2023/04/05 00:38:23;;;;;;;3.53;1.92;;;14.40;56.80;;;;;;10321581;28;20023;-54
2023/04/05 00:43:24;;;;;;;3.05;1.67;;;14.40;56.80;;;;;;10322784;28;20617;-53
2023/04/05 00:48:25;;;;;;;4.57;1.50;;;14.40;56.50;;;;;;10322848;28;20029;-55
2023/04/05 00:53:26;;;;;;;2.20;1.42;;;14.40;56.40;;;;;;10312807;28;20482;-54
2023/04/05 00:58:27;;;;;;;3.85;2.20;;;14.40;56.70;;;;;;10329778;28;20102;-55
2023/04/05 01:03:33;;;;;;;2.47;1.98;;;14.40;56.70;;;;;;10322851;28;20019;-53
2023/04/05 01:08:56;;;;;;;2.85;1.80;;;14.40;56.50;;;;;;10322997;28;20054;-55
2023/04/05 01:14:01;;;;;;;2.97;1.48;;;14.30;56.60;;;;;;10322943;28;20505;-55
2023/04/05 01:19:02;;;;;;;2.78;1.48;;;14.30;56.30;;;;;;10322737;28;20031;-54
2023/04/05 01:24:57;;;;;;;3.40;1.67;;;14.30;56.70;;;;;;10321758;28;20038;-52
2023/04/05 01:30:16;;;;;;;3.63;2.03;;;14.30;56.40;;;;;;10322115;28;20046;-53
2023/04/05 01:35:29;;;;;;;3.47;1.85;;;14.30;56.50;;;;;;10328824;28;20589;-54
2023/04/05 01:40:31;;;;;;;3.28;1.95;;;14.30;56.40;;;;;;10336897;28;20497;-54
2023/04/05 01:45:32;;;;;;;2.92;1.88;;;14.30;56.20;;;;;;10328645;28;20061;-55
2023/04/05 01:50:33;;;;;;;3.03;2.00;;;14.20;56.00;;;;;;10327656;28;20141;-55
2023/04/05 01:55:33;;;;;;;3.58;2.08;;;14.20;56.50;;;;;;10325698;28;20411;-54
2023/04/05 02:00:34;;;;;;;3.10;1.60;;;14.20;57.10;;;;;;10332369;28;20085;-56
2023/04/05 02:05:35;;;;;;;3.13;1.90;;;14.20;56.20;;;;;;10325379;28;20046;-55
2023/04/05 02:10:35;;;;;;;3.75;1.80;;;14.20;56.00;;;;;;10326072;28;20150;-54
2023/04/05 02:15:36;;;;;;;2.85;2.00;;;14.20;56.00;;;;;;10327554;28;20027;-52
2023/04/05 02:20:37;;;;;;;2.90;1.83;;;14.20;55.90;;;;;;10327312;28;20391;-54
2023/04/05 02:25:38;;;;;;;3.25;1.92;;;14.20;56.00;;;;;;10327770;28;20125;-55
2023/04/05 02:30:38;;;;;;;3.97;1.77;;;14.10;56.20;;;;;;10325479;28;20066;-55
2023/04/05 02:35:39;;;;;;;4.00;2.13;;;14.10;55.90;;;;;;10325881;28;20113;-54
2023/04/05 02:40:40;;;;;;;4.22;2.00;;;14.10;55.70;;;;;;10325055;28;20117;-54
2023/04/05 02:45:41;;;;;;;3.50;1.75;;;14.20;57.40;;;;;;10326368;28;20593;-56
2023/04/05 02:50:49;;;;;;;2.00;1.17;;;14.30;56.40;;;;;;10331472;28;20125;-55
2023/04/05 02:55:58;;;;;;;2.78;1.65;;;14.50;55.60;;;;;;10337422;28;20019;-55
2023/04/05 03:01:00;;;;;;;2.63;1.40;;;14.70;55.20;;;;;;10331514;28;20117;-55
2023/04/05 03:06:10;;;;;;;2.65;1.98;;;14.80;54.80;;;;;;10330318;28;20053;-54
2023/04/05 03:11:11;;;;;;;3.17;1.70;;;15.00;54.30;;;;;;10325214;28;20682;-54
2023/04/05 03:16:12;;;;;;;2.10;1.50;;;15.20;54.40;;;;;;10326125;28;20022;-55
2023/04/05 03:21:16;;;;;;;4.38;1.75;;;15.60;53.10;;;;;;10325694;28;20109;-55
2023/04/05 03:26:17;;;;;;;2.58;1.50;;;15.90;52.40;;;;;;10324226;28;20029;-55
2023/04/05 03:31:18;;;;;;;3.05;1.58;;;16.10;51.80;;;;;;10324729;28;20445;-55
2023/04/05 03:36:18;;;;;;;2.05;1.25;;;16.20;51.40;;;;;;10323733;28;20113;-55
2023/04/05 03:41:19;;;;;;;2.67;1.30;;;16.30;51.30;;;;;;10324809;28;20105;-55
2023/04/05 03:46:20;;;;;;;1.77;1.02;;;16.40;51.10;;;;;;10324014;28;20129;-54
2023/04/05 03:51:21;;;;;;;1.90;1.17;;;16.40;51.10;;;;;;10322700;28;20061;-55
2023/04/05 03:56:21;;;;;;;2.83;1.55;;;16.40;51.00;;;;;;10324002;28;20054;-55
2023/04/05 04:01:22;;;;;;;2.35;1.45;;;16.50;50.90;;;;;;10328099;28;20184;-55
2023/04/05 04:06:25;;;;;;;3.63;1.25;;;16.50;50.80;;;;;;10322074;28;20545;-56
2023/04/05 04:11:26;;;;;;;3.47;1.70;;;16.50;50.70;;;;;;10323465;28;20711;-55
2023/04/05 04:16:27;;;;;;;2.90;1.48;;;16.60;50.70;;;;;;10322924;28;20022;-55
2023/04/05 04:21:27;;;;;;;2.28;1.08;;;16.60;50.50;;;;;;10322621;28;20118;-55
2023/04/05 04:26:28;;;;;;;3.15;1.50;;;16.60;50.60;;;;;;10323255;28;20121;-54
2023/04/05 04:31:29;;;;;;;1.55;0.95;;;16.70;51.20;;;;;;10323018;28;20117;-55
2023/04/05 04:36:33;;;;;;;2.20;1.48;;;16.70;50.40;;;;;;10322187;28;20018;-55
2023/04/05 04:41:35;;;;;;;2.55;1.63;;;16.70;50.30;;;;;;10321321;28;20110;-55
2023/04/05 04:46:42;;;;;;;2.70;1.08;;;16.80;50.80;;;;;;10322309;28;20474;-56
2023/04/05 04:51:42;;;;;;;3.42;1.58;;;16.70;51.20;;;;;;10318492;28;20034;-56
2023/04/05 04:56:43;;;;;;;4.68;1.75;;;16.70;51.20;;;;;;10323715;28;20090;-55
2023/04/05 05:01:44;;;;;;;11.52;3.10;;;16.80;52.20;;;;;;10332300;28;20087;-56
2023/04/05 05:06:45;;;;;;;8.18;1.55;;;16.70;53.70;;;;;;10330942;28;20092;-57
2023/04/05 05:11:46;;;;;;;8.35;1.95;;;16.60;54.50;;;;;;10343558;28;20022;-57
2023/04/05 05:16:46;;;;;;;8.07;1.65;;;16.60;54.70;;;;;;10329444;28;20149;-56
2023/04/05 05:21:48;;;;;;;7.03;2.08;;;16.50;54.80;;;;;;10330517;28;20126;-55
2023/04/05 05:26:50;;;;;;;6.80;1.70;;;16.40;55.00;;;;;;10329294;28;20077;-56
2023/04/05 05:31:50;;;;;;;11.38;2.45;;;16.40;55.20;;;;;;10328008;28;20038;-55
2023/04/05 05:36:52;;;;;;;5.10;1.83;;;16.40;55.00;;;;;;10326428;28;20038;-57
2023/04/05 05:41:53;;;;;;;9.65;2.85;;;16.50;55.10;;;;;;10328229;28;20022;-56
2023/04/05 05:46:53;;;;;;;11.68;2.20;;;16.40;55.40;;;;;;10328854;28;20139;-55
2023/04/05 05:51:55;;;;;;;29.30;4.15;;;16.40;55.70;;;;;;10312154;28;20173;-55
2023/04/05 05:56:56;;;;;;;12.45;3.05;;;16.30;56.10;;;;;;10321615;28;20045;-55
2023/04/05 06:01:57;;;;;;;16.95;3.22;;;16.20;55.80;;;;;;10332491;28;20026;-56
2023/04/05 06:06:57;;;;;;;13.15;2.70;;;16.10;56.00;;;;;;10326780;28;20065;-52
2023/04/05 06:11:58;;;;;;;12.70;2.63;;;16.10;55.70;;;;;;10326359;28;20037;-54
2023/04/05 06:16:59;;;;;;;16.15;3.35;;;16.00;55.70;;;;;;10326369;28;20113;-56
2023/04/05 06:22:00;;;;;;;13.20;3.95;;;15.90;55.60;;;;;;10327471;28;20078;-56
2023/04/05 06:27:00;;;;;;;11.07;3.00;;;15.90;55.60;;;;;;10322828;28;20109;-54
2023/04/05 06:32:01;;;;;;;12.25;3.40;;;16.00;55.40;;;;;;10326788;28;20058;-57
2023/04/05 06:37:02;;;;;;;12.70;2.67;;;16.00;55.10;;;;;;10326411;28;20143;-55
2023/04/05 06:42:03;;;;;;;15.40;2.55;;;16.00;55.60;;;;;;10326866;28;20104;-55
2023/04/05 06:47:03;;;;;;;9.70;2.75;;;16.10;55.30;;;;;;10323764;28;20531;-56
2023/04/05 06:52:05;;;;;;;8.48;2.45;;;16.00;55.40;;;;;;10329501;28;20101;-55
2023/04/05 06:57:06;;;;;;;9.02;3.35;;;16.10;54.90;;;;;;10326035;28;20018;-55
2023/04/05 07:02:06;;;;;;;8.07;2.55;;;16.00;55.10;;;;;;10329192;28;20109;-56
2023/04/05 07:07:07;;;;;;;8.45;2.80;;;16.00;54.80;;;;;;10330535;28;20066;-56
2023/04/05 07:12:08;;;;;;;9.65;2.15;;;16.00;54.80;;;;;;10326013;28;20062;-55
2023/04/05 07:17:09;;;;;;;8.25;2.58;;;16.00;54.80;;;;;;10324119;28;20034;-55
2023/04/05 07:22:09;;;;;;;4.13;1.90;;;16.00;54.80;;;;;;10307450;28;20085;-55
2023/04/05 07:27:10;;;;;;;6.00;1.92;;;15.90;55.40;;;;;;10324742;28;20561;-54
2023/04/05 07:32:11;;;;;;;5.55;2.00;;;15.90;54.80;;;;;;10324792;28;20508;-59
2023/04/05 07:37:11;;;;;;;5.10;1.80;;;15.90;54.80;;;;;;10324189;28;20101;-56
2023/04/05 07:42:12;;;;;;;5.05;1.77;;;15.90;54.80;;;;;;10324349;28;20064;-55
2023/04/05 07:47:13;;;;;;;3.00;1.48;;;15.90;54.80;;;;;;10324046;28;20128;-54
2023/04/05 07:52:13;;;;;;;7.15;2.55;;;15.90;54.80;;;;;;10324347;28;20073;-55
2023/04/05 07:57:18;;;;;;;4.93;2.08;;;15.80;55.00;;;;;;10338930;28;20134;-56
2023/04/05 08:02:19;;;;;;;3.30;1.88;;;15.80;54.90;;;;;;10322552;28;20556;-55
2023/04/05 08:07:20;;;;;;;3.78;1.80;;;16.00;55.40;;;;;;10322145;28;20049;-53
2023/04/05 08:12:20;;;;;;;5.03;1.95;;;16.00;55.20;;;;;;10323728;28;20082;-55
2023/04/05 08:17:22;;;;;;;5.35;2.40;;;16.00;55.30;;;;;;10323189;28;20149;-54
2023/04/05 08:22:27;;;;;;;4.05;2.13;;;16.00;55.10;;;;;;10323214;28;20022;-54
2023/04/05 08:27:28;;;;;;;12.30;3.75;;;16.00;55.20;;;;;;10321166;28;20027;-53
2023/04/05 08:32:29;;;;;;;6.82;2.22;;;16.10;55.90;;;;;;10321239;28;20655;-56
2023/04/05 08:37:34;;;;;;;8.77;2.20;;;16.00;56.40;;;;;;10321727;28;20417;-55
2023/04/05 08:43:01;;;;;;;9.05;2.55;;;16.10;56.00;;;;;;10321460;28;20121;-55
2023/04/05 08:48:01;;;;;;;10.68;2.20;;;16.10;56.30;;;;;;10313787;28;20520;-55
2023/04/05 08:53:02;;;;;;;5.03;2.92;;;16.10;56.50;;;;;;10326396;28;20030;-55
2023/04/05 08:58:12;;;;;;;4.30;1.67;;;15.90;55.80;;;;;;10320945;28;20026;-55
2023/04/05 09:03:19;;;;;;;;;;;15.70;56.10;;;;;;10327792;28;20110;-55
2023/04/05 09:08:22;;;;;;;9.73;2.25;;;15.60;56.40;;;;;;10331404;28;20008;-56
2023/04/05 09:13:23;;;;;;;5.88;2.17;;;15.50;56.50;;;;;;10321515;28;20113;-55
2023/04/05 09:18:23;;;;;;;4.05;1.92;;;15.50;56.40;;;;;;10320558;28;20382;-54
2023/04/05 09:23:25;;;;;;;6.85;2.35;;;15.40;56.20;;;;;;10320215;28;20500;-55
2023/04/05 09:28:42;;;;;;;7.03;2.25;;;15.40;56.30;;;;;;10319509;28;20138;-55
2023/04/05 09:33:42;;;;;;;5.32;2.33;;;15.40;56.40;;;;;;10319985;28;20027;-55
2023/04/05 09:38:46;;;;;;;5.95;2.30;;;15.40;56.40;;;;;;10319714;28;20687;-55
2023/04/05 09:43:47;;;;;;;3.55;1.90;;;15.40;56.30;;;;;;10321968;28;20493;-54
2023/04/05 09:48:49;;;;;;;4.20;2.22;;;15.30;56.20;;;;;;10327277;28;20020;-54
2023/04/05 09:54:07;;;;;;;7.35;1.77;;;15.30;56.10;;;;;;10329010;28;20169;-55
2023/04/05 09:59:11;;;;;;;5.07;2.42;;;15.30;56.20;;;;;;10332319;28;20068;-54
2023/04/05 10:04:11;;;;;;;3.92;1.90;;;15.40;56.20;;;;;;10327908;28;20055;-55
2023/04/05 10:09:13;;;;;;;4.57;1.92;;;15.30;56.00;;;;;;10328399;28;20113;-55
2023/04/05 10:14:14;;;;;;;3.80;2.00;;;15.30;55.90;;;;;;10328320;28;20482;-54
2023/04/05 10:19:38;;;;;;;7.88;2.33;;;15.40;56.00;;;;;;10327438;28;20141;-55
2023/04/05 10:24:54;;;;;;;7.40;2.17;;;15.30;55.90;;;;;;10324411;28;20041;-56
2023/04/05 10:30:05;;;;;;;5.78;2.67;;;15.40;56.00;;;;;;10328153;28;20058;-54
2023/04/05 10:35:18;;;;;;;6.40;2.03;;;15.40;55.60;;;;;;10327844;28;20449;-55
2023/04/05 10:40:21;;;;;;;4.93;2.08;;;15.50;55.50;;;;;;10324724;28;20045;-55
2023/04/05 10:45:24;;;;;;;5.53;2.00;;;15.50;55.50;;;;;;10326770;28;20516;-56
2023/04/05 10:50:25;;;;;;;3.90;1.77;;;15.40;55.80;;;;;;10327501;28;20393;-56
2023/04/05 10:55:26;;;;;;;5.30;1.98;;;15.50;56.20;;;;;;10335851;28;20090;-55
2023/04/05 11:00:27;;;;;;;3.78;2.08;;;15.50;56.30;;;;;;10326593;28;20034;-55
2023/04/05 11:05:34;;;;;;;5.22;2.05;;;15.50;56.40;;;;;;10323301;28;20125;-56
2023/04/05 11:10:38;;;;;;;7.05;1.80;;;15.50;56.00;;;;;;10326347;28;20041;-56
2023/04/05 11:15:39;;;;;;;11.77;2.72;;;15.50;56.60;;;;;;10326985;28;20054;-55
2023/04/05 11:21:05;;;;;;;10.10;2.42;;;15.50;57.00;;;;;;10325376;28;20034;-56
2023/04/05 11:26:06;;;;;;;8.00;2.22;;;15.60;56.80;;;;;;10319549;28;20490;-54
2023/04/05 11:31:19;;;;;;;8.10;1.85;;;15.50;56.30;;;;;;10323638;28;20709;-55
2023/04/05 11:36:44;;;;;;;7.25;2.55;;;15.50;56.60;;;;;;10323262;28;20018;-56
2023/04/05 11:41:51;;;;;;;8.20;2.35;;;15.50;56.50;;;;;;10325366;28;20109;-57
2023/04/05 11:46:53;;;;;;;6.25;1.92;;;15.50;56.90;;;;;;10323005;28;20106;-54
2023/04/05 11:51:54;;;;;;;6.00;2.08;;;15.80;56.10;;;;;;10322662;28;20180;-55
2023/04/05 11:56:55;;;;;;;6.30;1.98;;;15.70;57.30;;;;;;10323436;28;20050;-53
2023/04/05 12:02:06;;;;;;;4.00;1.88;;;15.70;57.20;;;;;;10324835;28;20054;-54
2023/04/05 12:07:15;;;;;;;6.63;2.03;;;15.70;57.10;;;;;;10331981;28;20046;-53
2023/04/05 12:12:16;;;;;;;4.90;1.80;;;15.60;57.30;;;;;;10322291;28;20428;-55
2023/04/05 12:17:17;;;;;;;7.45;2.17;;;15.70;57.10;;;;;;10322934;28;20033;-55
2023/04/05 12:22:17;;;;;;;6.03;2.30;;;15.70;56.80;;;;;;10323727;28;20054;-55
2023/04/05 12:27:18;;;;;;;8.70;3.13;;;15.70;56.70;;;;;;10322608;28;20046;-56
2023/04/05 12:32:20;;;;;;;5.32;1.75;;;15.70;56.30;;;;;;10322214;28;20063;-55
2023/04/05 12:37:21;;;;;;;11.10;2.88;;;15.70;56.00;;;;;;10322807;28;20105;-56
2023/04/05 12:42:21;;;;;;;7.30;2.70;;;15.70;55.70;;;;;;10321701;28;20030;-55
2023/04/05 12:47:22;;;;;;;5.95;2.08;;;15.70;55.60;;;;;;10320571;28;20037;-56
2023/04/05 12:52:26;;;;;;;6.82;2.13;;;15.70;55.60;;;;;;10322770;28;20042;-56
2023/04/05 12:57:33;;;;;;;5.80;2.00;;;15.70;55.40;;;;;;10320844;28;20022;-56
2023/04/05 13:02:33;;;;;;;5.30;2.05;;;15.70;55.40;;;;;;10323410;28;20114;-55
2023/04/05 13:07:34;;;;;;;4.40;1.70;;;15.70;55.20;;;;;;10330564;28;20058;-56
2023/04/05 13:12:35;;;;;;;6.35;2.47;;;15.70;55.30;;;;;;10323291;28;20089;-56
2023/04/05 13:17:36;;;;;;;5.70;1.80;;;15.70;55.40;;;;;;10323397;28;20101;-55
2023/04/05 13:22:38;;;;;;;5.88;2.10;;;15.70;55.30;;;;;;10326543;28;20031;-56
2023/04/05 13:27:39;;;;;;;3.60;2.00;;;15.80;55.30;;;;;;10329846;28;20026;-55
2023/04/05 13:32:40;;;;;;;4.82;2.35;;;15.70;55.50;;;;;;10330127;28;20030;-55
2023/04/05 13:37:40;;;;;;;4.43;1.77;;;15.80;55.30;;;;;;10329662;28;20081;-56
2023/04/05 13:42:42;;;;;;;3.17;1.50;;;15.80;55.30;;;;;;10329767;28;20118;-55
2023/04/05 13:47:42;;;;;;;3.00;1.55;;;15.80;55.20;;;;;;10329630;28;20098;-56
2023/04/05 13:52:43;;;;;;;3.25;1.55;;;15.80;55.40;;;;;;10329398;28;20461;-55
2023/04/05 13:57:44;;;;;;;4.05;1.50;;;15.80;55.40;;;;;;10326541;28;20113;-56
2023/04/05 14:02:45;;;;;;;3.85;1.40;;;15.80;55.10;;;;;;10334311;28;20093;-56
2023/04/05 14:07:46;;;;;;;3.60;1.30;;;15.80;55.20;;;;;;10329093;28;20050;-55
2023/04/05 14:12:46;;;;;;;5.03;1.52;;;15.80;55.30;;;;;;10328994;28;20026;-56
2023/04/05 14:17:47;;;;;;;3.38;1.70;;;15.80;55.20;;;;;;10328738;28;20038;-56
2023/04/05 14:22:47;;;;;;;4.50;2.00;;;15.80;55.10;;;;;;10328613;28;20098;-55
2023/04/05 14:27:48;;;;;;;2.63;1.52;;;15.90;55.10;;;;;;10328480;28;20061;-56
2023/04/05 14:32:49;;;;;;;5.03;2.17;;;15.80;55.20;;;;;;10325068;28;20113;-56
2023/04/05 14:37:49;;;;;;;2.72;1.42;;;15.80;55.20;;;;;;10327058;28;20885;-56
2023/04/05 14:42:50;;;;;;;2.75;1.55;;;15.80;55.30;;;;;;10327132;28;20062;-56
2023/04/05 14:47:51;;;;;;;3.35;1.27;;;15.80;55.40;;;;;;10326986;28;20108;-56
2023/04/05 14:52:52;;;;;;;4.45;2.15;;;15.80;55.00;;;;;;10338003;28;20044;-58
2023/04/05 14:57:53;;;;;;;5.90;1.83;;;15.80;54.70;;;;;;10331860;28;20030;-56
2023/04/05 15:02:54;;;;;;;2.35;1.52;;;15.80;54.70;;;;;;10326737;28;20062;-56
2023/04/05 15:07:55;;;;;;;2.97;1.45;;;15.80;54.70;;;;;;10326513;28;20049;-55
2023/04/05 15:12:55;;;;;;;2.95;1.80;;;15.80;54.50;;;;;;10325994;28;20113;-55
2023/04/05 15:17:56;;;;;;;4.13;1.48;;;15.80;54.40;;;;;;10326014;28;20030;-56
2023/04/05 15:22:57;;;;;;;3.85;2.08;;;15.90;54.40;;;;;;10325937;28;20591;-56
2023/04/05 15:27:58;;;;;;;3.17;1.67;;;15.90;54.10;;;;;;10324955;28;20030;-57
2023/04/05 15:32:59;;;;;;;3.00;1.85;;;15.90;53.90;;;;;;10325503;28;20034;-57
2023/04/05 15:38:00;;;;;;;8.00;3.38;;;16.00;53.50;;;;;;10325338;28;20377;-58
2023/04/05 15:43:01;;;;;;;9.60;3.20;;;15.90;52.60;;;;;;10324865;28;20053;-56
2023/04/05 15:48:01;;;;;;;8.90;3.30;;;15.90;52.70;;;;;;10324364;28;20128;-57
2023/04/05 15:53:02;;;;;;;8.57;3.42;;;15.90;52.90;;;;;;10324895;28;20130;-56
2023/04/05 15:58:03;;;;;;;6.85;3.50;;;15.90;53.30;;;;;;10324405;28;20090;-56
2023/04/05 16:03:04;;;;;;;4.05;2.65;;;15.90;55.20;;;;;;10323360;28;20109;-56
2023/04/05 16:08:05;;;;;;;5.80;3.13;;;16.00;53.60;;;;;;10322225;28;20051;-56
2023/04/05 16:13:06;;;;;;;8.73;3.88;;;16.00;55.00;;;;;;10323445;28;20054;-55
2023/04/05 16:18:08;;;;;;;6.05;3.53;;;16.00;54.00;;;;;;10323744;28;20621;-56
2023/04/05 16:23:09;;;;;;;4.15;2.72;;;15.90;53.90;;;;;;10323704;28;20014;-57
2023/04/05 16:28:10;;;;;;;6.70;2.88;;;15.80;54.10;;;;;;10322936;28;20366;-55
2023/04/05 16:33:11;;;;;;;12.25;3.25;;;15.80;55.00;;;;;;10323814;28;20129;-57
2023/04/05 16:38:12;;;;;;;10.45;3.00;;;16.10;57.20;;;;;;10323484;28;20105;-56
2023/04/05 16:43:12;;;;;;;12.68;3.95;;;16.30;56.90;;;;;;10322751;28;20097;-57
2023/04/05 16:48:13;;;;;;;7.65;3.53;;;16.30;57.20;;;;;;10327600;28;20161;-57
2023/04/05 16:53:14;;;;;;;13.80;3.85;;;16.20;57.20;;;;;;10324686;28;20030;-53
2023/04/05 16:58:15;;;;;;;13.52;6.55;;;16.20;57.70;;;;;;10329235;28;20626;-56
2023/04/05 17:03:16;;;;;;;18.17;3.85;;;16.10;58.30;;;;;;10332991;28;20042;-54
2023/04/05 17:08:16;;;;;;;12.95;4.38;;;15.90;56.70;;;;;;10331552;28;20125;-57
2023/04/05 17:13:17;;;;;;;13.52;4.15;;;15.80;56.80;;;;;;10330426;28;20452;-57
2023/04/05 17:18:18;;;;;;;18.67;3.55;;;15.80;57.10;;;;;;10330340;28;20087;-56
2023/04/05 17:23:19;;;;;;;19.83;4.15;;;15.80;57.80;;;;;;10330039;28;20121;-57
2023/04/05 17:28:20;;;;;;;13.10;3.75;;;15.70;57.80;;;;;;10345346;28;20084;-55
2023/04/05 17:33:20;;;;;;;13.52;3.65;;;15.70;57.70;;;;;;10328739;28;20027;-56
2023/04/05 17:38:21;;;;;;;14.25;4.25;;;15.60;57.50;;;;;;10329250;28;20465;-56
2023/04/05 17:43:22;;;;;;;13.15;3.42;;;15.60;57.60;;;;;;10329463;28;20077;-56
2023/04/05 17:48:23;;;;;;;18.10;4.03;;;15.60;57.70;;;;;;10329641;28;20563;-56
2023/04/05 17:53:24;;;;;;;9.70;3.15;;;15.60;57.80;;;;;;10328361;28;20145;-57
2023/04/05 17:58:27;;;;;;;8.60;3.63;;;15.50;57.50;;;;;;10329702;28;20030;-57
2023/04/05 18:03:28;;;;;;;9.27;3.40;;;15.50;57.30;;;;;;10332287;28;20023;-57
2023/04/05 18:08:29;;;;;;;6.30;3.13;;;15.50;57.40;;;;;;10328772;28;20121;-55
2023/04/05 18:13:29;;;;;;;8.68;3.05;;;15.50;57.40;;;;;;10328443;28;20117;-54
2023/04/05 18:18:30;;;;;;;6.70;2.95;;;15.40;57.50;;;;;;10329288;28;20022;-55
2023/04/05 18:23:31;;;;;;;8.80;4.30;;;15.40;57.60;;;;;;10319076;28;20050;-55
2023/04/05 18:28:31;;;;;;;7.70;2.63;;;15.30;57.60;;;;;;10328777;28;20030;-56
2023/04/05 18:33:32;;;;;;;8.10;2.50;;;15.40;57.20;;;;;;10328349;28;20047;-56
2023/04/05 18:38:33;;;;;;;6.88;2.95;;;15.40;57.30;;;;;;10335872;28;20109;-56
2023/04/05 18:43:34;;;;;;;7.13;2.25;;;15.40;57.20;;;;;;10327203;28;20022;-56
2023/04/05 18:48:37;;;;;;;4.95;2.45;;;15.40;57.10;;;;;;10326845;28;20075;-56
2023/04/05 18:53:38;;;;;;;8.57;2.40;;;15.40;57.00;;;;;;10322379;28;20035;-56
2023/04/05 18:58:39;;;;;;;8.68;2.83;;;15.40;57.00;;;;;;10322926;28;20101;-55
2023/04/05 19:03:40;;;;;;;6.53;2.33;;;15.50;56.90;;;;;;10320156;28;20042;-54
2023/04/05 19:08:41;;;;;;;8.00;2.45;;;15.60;57.00;;;;;;10321310;28;20033;-56
2023/04/05 19:13:42;;;;;;;7.75;2.20;;;15.60;56.70;;;;;;10323754;28;20029;-55
2023/04/05 19:18:43;;;;;;;7.30;2.40;;;15.60;56.70;;;;;;10324269;28;20046;-56
2023/04/05 19:23:43;;;;;;;5.25;1.98;;;15.60;56.70;;;;;;10325644;28;20106;-54
2023/04/05 19:28:44;;;;;;;7.50;2.53;;;15.50;56.60;;;;;;10323859;28;20113;-56
2023/04/05 19:33:45;;;;;;;6.38;2.50;;;15.50;56.50;;;;;;10323498;28;20172;-56
2023/04/05 19:38:45;;;;;;;3.47;1.83;;;15.50;56.50;;;;;;10322489;28;20025;-55
2023/04/05 19:43:46;;;;;;;7.63;1.98;;;15.40;56.50;;;;;;10321790;28;20089;-55
2023/04/05 19:48:47;;;;;;;5.53;2.78;;;15.40;56.60;;;;;;10322571;28;20567;-56
2023/04/05 19:53:50;;;;;;;4.18;1.80;;;15.40;56.80;;;;;;10323071;28;20163;-56
2023/04/05 19:59:02;;;;;;;4.28;2.33;;;15.40;56.70;;;;;;10324922;28;20029;-56
2023/04/05 20:04:16;;;;;;;5.45;2.55;;;15.40;56.70;;;;;;10322745;28;20524;-55
2023/04/05 20:09:17;;;;;;;5.72;1.92;;;15.30;56.70;;;;;;10321826;28;20034;-55
2023/04/05 20:14:22;;;;;;;4.85;2.35;;;15.30;56.70;;;;;;10320476;28;20046;-55
2023/04/05 20:19:29;;;;;;;4.63;2.70;;;15.30;56.70;;;;;;10305201;28;20030;-55
2023/04/05 20:24:29;;;;;;;6.03;2.15;;;15.20;56.60;;;;;;10323998;28;20054;-55
2023/04/05 20:29:34;;;;;;;3.90;1.70;;;15.20;56.70;;;;;;10323636;28;20041;-55
2023/04/05 20:34:37;;;;;;;4.00;2.30;;;15.20;56.70;;;;;;10323498;28;20381;-53
2023/04/05 20:39:37;;;;;;;2.67;1.58;;;15.20;56.80;;;;;;10310846;28;20500;-56
2023/04/05 20:44:38;;;;;;;3.63;1.42;;;15.20;57.00;;;;;;10338038;28;20046;-54
2023/04/05 20:49:38;;;;;;;2.75;0.95;;;15.20;57.00;;;;;;10329259;28;20424;-56
2023/04/05 20:54:39;;;;;;;3.17;1.75;;;15.20;57.10;;;;;;10336014;28;20073;-54
2023/04/05 20:59:40;;;;;;;2.95;1.70;;;15.10;57.00;;;;;;10327263;28;20124;-56
2023/04/05 21:04:41;;;;;;;2.75;1.35;;;15.10;57.00;;;;;;10328899;28;20082;-56
2023/04/05 21:09:41;;;;;;;3.22;1.50;;;15.10;57.30;;;;;;10323410;28;20058;-54
2023/04/05 21:14:42;;;;;;;3.15;1.52;;;15.10;57.50;;;;;;10323350;28;20121;-56
2023/04/05 21:19:43;;;;;;;2.72;1.23;;;15.10;57.50;;;;;;10323507;28;20050;-56
2023/04/05 21:24:43;;;;;;;2.80;1.73;;;15.00;57.70;;;;;;10323103;28;20057;-56
2023/04/05 21:29:44;;;;;;;2.10;1.50;;;15.00;57.30;;;;;;10322232;28;20505;-56
2023/04/05 21:34:45;;;;;;;3.20;1.48;;;15.00;57.20;;;;;;10322607;28;20057;-56
2023/04/05 21:39:45;;;;;;;2.97;1.60;;;15.00;57.10;;;;;;10322943;28;20058;-57
2023/04/05 21:44:46;;;;;;;3.95;1.98;;;15.00;56.90;;;;;;10328427;28;20449;-55
2023/04/05 21:49:46;;;;;;;3.60;1.63;;;15.00;57.00;;;;;;10329859;28;20030;-53
2023/04/05 21:54:47;;;;;;;3.65;2.03;;;14.90;56.80;;;;;;10329463;28;20609;-56
2023/04/05 21:59:48;;;;;;;3.50;2.30;;;14.90;56.70;;;;;;10334171;28;20046;-56
2023/04/05 22:04:49;;;;;;;3.38;2.00;;;14.90;56.90;;;;;;10328871;28;20077;-56
2023/04/05 22:09:49;;;;;;;3.03;1.50;;;14.90;56.70;;;;;;10328537;28;20106;-56
2023/04/05 22:14:50;;;;;;;2.53;1.83;;;14.90;56.80;;;;;;10329165;28;20104;-56
2023/04/05 22:19:51;;;;;;;4.55;2.35;;;14.80;56.70;;;;;;10328399;28;20553;-56
2023/04/05 22:24:51;;;;;;;3.58;1.73;;;14.80;56.60;;;;;;10327857;28;20121;-57
2023/04/05 22:29:53;;;;;;;2.40;1.58;;;14.80;56.60;;;;;;10327743;28;20105;-55
2023/04/05 22:34:55;;;;;;;3.85;2.53;;;14.80;56.40;;;;;;10328288;28;20118;-56
2023/04/05 22:39:56;;;;;;;3.08;1.70;;;14.80;56.40;;;;;;10328242;28;20021;-56
2023/04/05 22:44:57;;;;;;;3.58;2.20;;;14.80;56.40;;;;;;10327672;28;20816;-55
2023/04/05 22:49:57;;;;;;;3.60;2.20;;;14.80;56.40;;;;;;10325990;28;20542;-54
2023/04/05 22:54:59;;;;;;;3.50;2.65;;;14.80;56.40;;;;;;10338439;28;20097;-56
2023/04/05 23:00:00;;;;;;;2.17;1.35;;;14.80;56.30;;;;;;10333098;28;20157;-56
2023/04/05 23:05:01;;;;;;;4.43;2.03;;;14.70;56.20;;;;;;10327198;28;20206;-56
2023/04/05 23:10:02;;;;;;;3.70;2.58;;;14.70;56.10;;;;;;10335718;28;20477;-56
2023/04/05 23:15:03;;;;;;;3.83;2.30;;;14.70;56.20;;;;;;10326881;28;20022;-55
2023/04/05 23:20:06;;;;;;;3.95;2.25;;;14.70;56.10;;;;;;10327045;28;20022;-56
2023/04/05 23:25:07;;;;;;;3.78;2.35;;;14.70;56.10;;;;;;10323680;28;20401;-56
2023/04/05 23:30:09;;;;;;;4.53;2.47;;;14.70;56.00;;;;;;10325755;28;20030;-56
2023/04/05 23:35:09;;;;;;;5.13;2.80;;;14.70;55.90;;;;;;10325818;28;20034;-55
2023/04/05 23:40:10;;;;;;;4.32;2.88;;;14.70;55.80;;;;;;10323669;28;20066;-54
2023/04/05 23:45:11;;;;;;;4.38;3.35;;;14.70;55.90;;;;;;10325516;28;20037;-56
2023/04/05 23:50:12;;;;;;;3.70;2.28;;;14.60;55.80;;;;;;10325377;28;20446;-56
2023/04/05 23:55:12;;;;;;;4.65;2.88;;;14.60;55.80;;;;;;10324808;28;20037;-54
